createdAt,value
2023-11-18T00:01:48.022Z,66.82
2023-11-18T00:04:26.429Z,66.43
2023-11-18T00:06:58.747Z,66.56
2023-11-18T00:09:29.707Z,66.64
2023-11-18T00:11:59.980Z,66.07
2023-11-18T00:14:42.018Z,66.49
2023-11-18T00:17:13.629Z,66.42
2023-11-18T00:19:48.125Z,66.85
2023-11-18T00:22:18.841Z,66.34
2023-11-18T00:24:52.145Z,66.20
2023-11-18T00:27:24.136Z,65.54
2023-11-18T00:29:54.794Z,65.55
2023-11-18T00:32:27.554Z,65.69
2023-11-18T00:35:04.288Z,65.79
2023-11-18T00:37:34.994Z,66.48
2023-11-18T00:40:05.439Z,65.98
2023-11-18T00:42:41.412Z,65.73
2023-11-18T00:45:16.538Z,66.00
2023-11-18T00:47:47.691Z,65.63
2023-11-18T00:50:21.834Z,65.86
2023-11-18T00:53:12.477Z,65.77
2023-11-18T00:55:43.133Z,65.71
2023-11-18T00:58:18.905Z,65.39
2023-11-18T01:00:50.108Z,65.16
2023-11-18T01:03:21.149Z,65.26
2023-11-18T01:05:56.798Z,65.23
2023-11-18T01:08:27.125Z,65.11
2023-11-18T01:10:58.256Z,64.46
2023-11-18T01:13:29.310Z,63.90
2023-11-18T01:16:02.428Z,64.74
2023-11-18T01:18:33.258Z,63.78
2023-11-18T01:21:06.539Z,63.47
2023-11-18T01:23:39.650Z,63.68
2023-11-18T01:26:11.211Z,64.07
2023-11-18T01:28:43.940Z,63.19
2023-11-18T01:31:19.004Z,62.67
2023-11-18T01:33:51.455Z,63.93
2023-11-18T01:36:24.542Z,63.90
2023-11-18T01:38:56.585Z,63.58
2023-11-18T01:41:26.935Z,63.68
2023-11-18T01:43:58.583Z,63.79
2023-11-18T01:46:31.363Z,63.58
2023-11-18T01:49:04.491Z,63.34
2023-11-18T01:51:39.385Z,63.19
2023-11-18T01:54:19.448Z,63.51
2023-11-18T01:56:51.293Z,62.97
2023-11-18T01:59:24.881Z,63.56
2023-11-18T02:02:03.747Z,63.33
2023-11-18T02:04:35.262Z,62.72
2023-11-18T02:07:10.745Z,63.44
2023-11-18T02:09:41.677Z,63.13
2023-11-18T02:12:23.530Z,62.56
2023-11-18T02:15:06.268Z,62.72
2023-11-18T02:17:38.555Z,62.65
2023-11-18T02:20:18.239Z,62.25
2023-11-18T02:22:52.323Z,62.25
2023-11-18T02:25:30.591Z,62.51
2023-11-18T02:28:07.219Z,62.15
2023-11-18T02:30:40.007Z,61.84
2023-11-18T02:33:20.270Z,61.83
2023-11-18T02:35:54.347Z,62.10
2023-11-18T02:38:30.013Z,61.86
2023-11-18T02:41:03.762Z,61.70
2023-11-18T02:43:41.656Z,61.18
2023-11-18T02:46:14.015Z,61.19
2023-11-18T02:48:45.390Z,61.13
2023-11-18T02:51:18.097Z,61.04
2023-11-18T02:53:51.903Z,61.06
2023-11-18T02:56:24.954Z,61.10
2023-11-18T02:59:02.186Z,60.95
2023-11-18T03:01:32.900Z,61.10
2023-11-18T03:04:03.853Z,61.02
2023-11-18T03:06:35.103Z,61.76
2023-11-18T03:09:08.526Z,61.08
2023-11-18T03:11:41.513Z,61.41
2023-11-18T03:14:20.954Z,60.95
2023-11-18T03:16:51.545Z,61.74
2023-11-18T03:19:21.884Z,61.23
2023-11-18T03:21:55.056Z,61.16
2023-11-18T03:24:26.516Z,61.58
2023-11-18T03:26:56.783Z,61.35
2023-11-18T03:29:31.787Z,62.08
2023-11-18T03:32:02.088Z,61.90
2023-11-18T03:34:32.773Z,62.00
2023-11-18T03:37:03.618Z,61.88
2023-11-18T03:39:36.997Z,62.03
2023-11-18T03:42:07.992Z,61.40
2023-11-18T03:44:42.195Z,61.68
2023-11-18T03:47:13.103Z,61.68
2023-11-18T03:49:43.669Z,60.66
2023-11-18T03:52:18.955Z,61.14
2023-11-18T03:54:49.279Z,60.50
2023-11-18T03:57:19.958Z,61.06
2023-11-18T03:59:53.596Z,61.29
2023-11-18T04:02:26.888Z,61.28
2023-11-18T04:04:57.792Z,61.07
2023-11-18T04:07:30.080Z,61.12
2023-11-18T04:10:02.768Z,61.65
2023-11-18T04:12:33.644Z,61.37
2023-11-18T04:15:12.412Z,61.34
2023-11-18T04:17:45.552Z,61.76
2023-11-18T04:20:17.666Z,61.54
2023-11-18T04:22:51.152Z,61.06
2023-11-18T04:25:24.613Z,61.19
2023-11-18T04:27:58.126Z,61.32
2023-11-18T04:30:31.572Z,60.97
2023-11-18T04:33:02.293Z,61.55
2023-11-18T04:35:35.996Z,61.57
2023-11-18T04:38:13.977Z,61.39
2023-11-18T04:40:47.138Z,61.55
2023-11-18T04:43:21.145Z,61.50
2023-11-18T04:45:58.755Z,61.81
2023-11-18T04:48:29.376Z,61.18
2023-11-18T04:50:59.761Z,61.57
2023-11-18T04:53:30.526Z,61.27
2023-11-18T04:56:01.329Z,61.09
2023-11-18T04:58:32.449Z,60.98
2023-11-18T05:01:10.370Z,61.10
2023-11-18T05:03:41.473Z,61.19
2023-11-18T05:06:12.039Z,61.33
2023-11-18T05:08:42.896Z,61.47
2023-11-18T05:11:14.366Z,60.69
2023-11-18T05:13:45.199Z,60.84
2023-11-18T05:16:19.242Z,60.85
2023-11-18T05:18:49.958Z,61.33
2023-11-18T05:21:23.167Z,61.48
2023-11-18T05:23:53.882Z,61.13
2023-11-18T05:26:24.739Z,61.35
2023-11-18T05:28:56.149Z,61.01
2023-11-18T05:31:29.884Z,61.70
2023-11-18T05:34:00.623Z,61.30
2023-11-18T05:36:38.676Z,61.53
2023-11-18T05:39:10.476Z,61.49
2023-11-18T05:41:42.342Z,61.55
2023-11-18T05:44:18.784Z,61.65
2023-11-18T05:46:53.089Z,61.78
2023-11-18T05:49:24.006Z,61.92
2023-11-18T05:51:57.797Z,62.14
2023-11-18T05:54:31.899Z,61.98
2023-11-18T05:57:02.656Z,61.98
2023-11-18T05:59:37.417Z,62.11
2023-11-18T06:02:14.369Z,62.73
2023-11-18T06:04:45.103Z,62.50
2023-11-18T06:07:16.130Z,62.81
2023-11-18T06:09:48.527Z,62.94
2023-11-18T06:12:19.163Z,62.78
2023-11-18T06:14:50.341Z,63.04
2023-11-18T06:17:25.067Z,62.86
2023-11-18T06:19:55.370Z,63.26
2023-11-18T06:22:31.461Z,63.17
2023-11-18T06:25:05.201Z,62.93
2023-11-18T06:27:35.938Z,62.97
2023-11-18T06:30:08.041Z,63.27
2023-11-18T06:32:42.306Z,63.40
2023-11-18T06:35:16.111Z,63.01
2023-11-18T06:37:46.939Z,62.49
2023-11-18T06:40:22.725Z,61.77
2023-11-18T06:42:55.850Z,61.43
2023-11-18T06:45:29.069Z,61.86
2023-11-18T06:48:02.897Z,62.33
2023-11-18T06:50:33.728Z,61.53
2023-11-18T06:53:08.413Z,61.63
2023-11-18T06:55:44.057Z,62.10
2023-11-18T06:58:14.627Z,62.31
2023-11-18T07:00:49.374Z,62.31
2023-11-18T07:03:23.160Z,62.70
2023-11-18T07:05:54.072Z,62.52
2023-11-18T07:08:26.969Z,62.94
2023-11-18T07:11:00.871Z,62.60
2023-11-18T07:13:31.758Z,62.10
2023-11-18T07:16:04.474Z,61.17
2023-11-18T07:18:39.310Z,58.99
2023-11-18T07:21:10.864Z,56.86
2023-11-18T07:23:45.339Z,54.63
2023-11-18T07:26:16.939Z,53.03
2023-11-18T07:28:50.607Z,52.06
2023-11-18T07:31:24.115Z,51.08
2023-11-18T07:33:59.208Z,49.42
2023-11-18T07:36:29.463Z,49.84
2023-11-18T07:39:02.315Z,49.84
2023-11-18T07:41:35.137Z,49.20
2023-11-18T07:44:05.469Z,49.76
2023-11-18T07:46:37.880Z,49.80
2023-11-18T07:49:15.988Z,49.80
2023-11-18T07:51:49.604Z,49.92
2023-11-18T07:54:23.068Z,50.33
2023-11-18T07:56:54.777Z,50.16
2023-11-18T07:59:25.359Z,50.44
2023-11-18T08:01:57.638Z,51.20
2023-11-18T08:04:33.242Z,51.96
2023-11-18T08:07:05.651Z,51.63
2023-11-18T08:09:36.861Z,51.62
2023-11-18T08:12:10.593Z,52.37
2023-11-18T08:14:43.203Z,51.53
2023-11-18T08:17:14.889Z,52.33
2023-11-18T08:19:48.433Z,51.17
2023-11-18T08:22:20.105Z,51.39
2023-11-18T08:24:53.828Z,50.27
2023-11-18T08:27:24.712Z,50.83
2023-11-18T08:29:55.862Z,50.33
2023-11-18T08:32:28.220Z,51.13
2023-11-18T08:35:05.610Z,50.70
2023-11-18T08:37:36.576Z,51.42
2023-11-18T08:40:08.086Z,51.67
2023-11-18T08:42:41.240Z,51.42
2023-11-18T08:45:15.820Z,51.91
2023-11-18T08:47:50.212Z,51.55
2023-11-18T08:50:25.411Z,51.63
2023-11-18T08:52:59.595Z,51.10
2023-11-18T08:55:44.121Z,50.07
2023-11-18T08:58:29.748Z,49.39
2023-11-18T09:01:15.471Z,50.33
2023-11-18T09:03:50.384Z,49.14
2023-11-18T09:06:27.417Z,49.17
2023-11-18T09:08:59.658Z,49.22
2023-11-18T09:11:34.428Z,49.13
2023-11-18T09:14:05.738Z,49.44
2023-11-18T09:16:40.916Z,50.68
2023-11-18T09:19:13.784Z,49.96
2023-11-18T09:21:47.360Z,50.22
2023-11-18T09:24:21.048Z,50.53
2023-11-18T09:26:52.274Z,49.44
2023-11-18T09:29:25.916Z,49.58
2023-11-18T09:32:00.221Z,49.20
2023-11-18T09:34:34.798Z,49.15
2023-11-18T09:37:11.489Z,48.09
2023-11-18T09:39:40.137Z,47.61
2023-11-18T09:42:15.613Z,48.17
2023-11-18T09:44:49.287Z,47.07
2023-11-18T09:47:26.554Z,46.91
2023-11-18T09:50:03.265Z,45.98
2023-11-18T09:52:40.469Z,47.03
2023-11-18T09:55:21.239Z,45.41
2023-11-18T09:57:59.102Z,45.70
2023-11-18T10:00:34.800Z,46.05
2023-11-18T10:03:09.701Z,46.45
2023-11-18T10:05:41.798Z,45.91
2023-11-18T10:08:17.761Z,45.64
2023-11-18T10:10:49.633Z,45.53
2023-11-18T10:13:25.961Z,45.41
2023-11-18T10:15:58.777Z,45.76
2023-11-18T10:18:30.344Z,44.50
2023-11-18T10:21:05.335Z,44.39
2023-11-18T10:23:38.954Z,45.31
2023-11-18T10:26:10.108Z,43.78
2023-11-18T10:28:40.502Z,44.57
2023-11-18T10:31:22.936Z,44.08
2023-11-18T10:33:53.619Z,43.34
2023-11-18T10:36:26.534Z,44.80
2023-11-18T10:39:01.601Z,43.63
2023-11-18T10:41:37.588Z,45.28
2023-11-18T10:44:16.132Z,45.35
2023-11-18T10:47:00.286Z,46.13
2023-11-18T10:49:38.640Z,45.60
2023-11-18T10:52:11.283Z,46.37
2023-11-18T10:54:55.842Z,45.68
2023-11-18T10:57:27.329Z,45.81
2023-11-18T11:00:04.852Z,44.36
2023-11-18T11:02:41.013Z,44.77
2023-11-18T11:05:21.112Z,43.92
2023-11-18T11:07:53.258Z,41.79
2023-11-18T11:10:29.887Z,40.44
2023-11-18T11:13:04.784Z,39.84
2023-11-18T11:15:45.226Z,40.22
2023-11-18T11:18:29.822Z,39.97
2023-11-18T11:21:16.676Z,38.45
2023-11-18T11:23:59.044Z,39.22
2023-11-18T11:26:56.247Z,38.22
2023-11-18T11:29:33.961Z,38.59
2023-11-18T11:32:29.549Z,37.85
2023-11-18T11:35:09.761Z,37.48
2023-11-18T11:37:43.529Z,37.38
2023-11-18T11:40:23.531Z,37.73
2023-11-18T11:43:01.802Z,37.45
2023-11-18T11:45:32.862Z,37.62
2023-11-18T11:48:20.893Z,39.19
2023-11-18T11:51:21.904Z,37.98
2023-11-18T11:53:59.594Z,38.25
2023-11-18T11:56:43.327Z,39.00
2023-11-18T11:59:16.268Z,36.68
2023-11-18T12:01:48.864Z,36.55
2023-11-18T12:04:30.223Z,35.95
2023-11-18T12:07:12.350Z,36.06
2023-11-18T12:09:46.653Z,36.23
2023-11-18T12:12:22.169Z,35.15
2023-11-18T12:15:13.642Z,36.20
2023-11-18T12:18:18.995Z,35.62
2023-11-18T12:20:56.567Z,34.73
2023-11-18T12:23:28.608Z,34.67
2023-11-18T12:25:59.826Z,35.44
2023-11-18T12:28:34.459Z,35.44
2023-11-18T12:31:18.003Z,34.61
2023-11-18T12:34:07.214Z,34.48
2023-11-18T12:36:57.636Z,34.53
2023-11-18T12:40:00.751Z,34.58
2023-11-18T12:42:59.676Z,34.50
2023-11-18T12:45:56.767Z,34.46
2023-11-18T12:48:34.791Z,33.99
2023-11-18T12:51:11.499Z,33.99
2023-11-18T12:53:42.688Z,33.90
2023-11-18T12:56:15.234Z,33.91
2023-11-18T12:58:49.348Z,33.42
2023-11-18T13:01:22.975Z,34.72
2023-11-18T13:03:56.850Z,34.93
2023-11-18T13:06:30.040Z,34.58
2023-11-18T13:09:07.097Z,35.38
2023-11-18T13:11:39.874Z,34.46
2023-11-18T13:14:10.226Z,35.42
2023-11-18T13:16:42.845Z,34.98
2023-11-18T13:19:29.216Z,35.32
2023-11-18T13:22:05.105Z,35.03
2023-11-18T13:24:37.824Z,34.70
2023-11-18T13:27:10.850Z,34.72
2023-11-18T13:29:56.622Z,35.59
2023-11-18T13:32:28.199Z,35.97
2023-11-18T13:35:09.891Z,35.77
2023-11-18T13:37:42.967Z,35.97
2023-11-18T13:40:15.305Z,35.30
2023-11-18T13:42:49.876Z,35.99
2023-11-18T13:45:33.371Z,36.21
2023-11-18T13:48:10.147Z,35.62
2023-11-18T13:50:45.077Z,42.33
2023-11-18T13:53:19.384Z,44.98
2023-11-18T13:55:52.011Z,46.49
2023-11-18T13:58:23.498Z,46.95
2023-11-18T14:00:54.370Z,47.13
2023-11-18T14:03:28.143Z,47.95
2023-11-18T14:06:04.882Z,48.04
2023-11-18T14:08:38.552Z,48.63
2023-11-18T14:11:16.773Z,48.87
2023-11-18T14:13:48.408Z,49.31
2023-11-18T14:16:25.149Z,49.87
2023-11-18T14:18:56.623Z,50.26
2023-11-18T14:21:29.962Z,50.53
2023-11-18T14:24:01.645Z,50.84
2023-11-18T14:26:32.843Z,51.33
2023-11-18T14:29:06.695Z,50.77
2023-11-18T14:31:38.811Z,51.08
2023-11-18T14:34:11.451Z,51.61
2023-11-18T14:36:46.157Z,51.64
2023-11-18T14:39:19.453Z,52.13
2023-11-18T14:41:50.617Z,52.37
2023-11-18T14:44:22.039Z,53.17
2023-11-18T14:46:52.990Z,53.40
2023-11-18T14:49:24.946Z,53.92
2023-11-18T14:51:58.393Z,53.69
2023-11-18T14:54:31.763Z,54.51
2023-11-18T14:57:02.073Z,55.00
2023-11-18T14:59:32.673Z,55.28
2023-11-18T15:02:08.876Z,55.77
2023-11-18T15:04:39.743Z,56.08
2023-11-18T15:07:14.044Z,55.95
2023-11-18T15:09:45.046Z,56.60
2023-11-18T15:12:17.361Z,56.51
2023-11-18T15:14:50.615Z,56.98
2023-11-18T15:17:25.573Z,56.92
2023-11-18T15:19:57.097Z,56.78
2023-11-18T15:22:31.563Z,57.04
2023-11-18T15:25:02.814Z,57.31
2023-11-18T15:27:36.218Z,57.06
2023-11-18T15:30:08.026Z,57.40
2023-11-18T15:32:40.726Z,57.86
2023-11-18T15:35:17.892Z,57.93
2023-11-18T15:37:54.095Z,58.21
2023-11-18T15:40:27.102Z,58.35
2023-11-18T15:42:58.102Z,58.55
2023-11-18T15:45:29.802Z,58.33
2023-11-18T15:48:01.070Z,58.93
2023-11-18T15:50:32.534Z,58.77
2023-11-18T15:53:08.846Z,59.26
2023-11-18T15:55:40.028Z,58.90
2023-11-18T15:58:11.329Z,59.56
2023-11-18T16:00:42.159Z,59.68
2023-11-18T16:03:13.901Z,60.10
2023-11-18T16:05:44.314Z,60.41
2023-11-18T16:08:17.267Z,60.25
2023-11-18T16:10:47.568Z,60.44
2023-11-18T16:13:19.043Z,60.08
2023-11-18T16:15:51.137Z,60.48
2023-11-18T16:18:24.432Z,60.62
2023-11-18T16:20:58.981Z,61.19
2023-11-18T16:23:36.453Z,61.38
2023-11-18T16:26:08.375Z,61.14
2023-11-18T16:28:40.508Z,61.32
2023-11-18T16:31:13.579Z,61.30
2023-11-18T16:33:46.760Z,61.55
2023-11-18T16:36:26.706Z,61.66
2023-11-18T16:39:03.304Z,61.88
2023-11-18T16:41:43.423Z,61.81
2023-11-18T16:44:17.410Z,62.12
2023-11-18T16:46:51.582Z,62.23
2023-11-18T16:49:25.550Z,62.34
2023-11-18T16:51:59.971Z,62.85
2023-11-18T16:54:40.589Z,62.66
2023-11-18T16:57:12.347Z,63.00
2023-11-18T16:59:44.590Z,63.34
2023-11-18T17:02:16.731Z,63.50
2023-11-18T17:04:50.397Z,63.38
2023-11-18T17:07:27.985Z,63.53
2023-11-18T17:10:08.298Z,63.24
2023-11-18T17:12:41.939Z,63.26
2023-11-18T17:15:15.437Z,63.48
2023-11-18T17:17:51.148Z,63.25
2023-11-18T17:20:28.911Z,63.31
2023-11-18T17:23:01.599Z,63.11
2023-11-18T17:25:35.194Z,62.90
2023-11-18T17:28:09.920Z,63.09
2023-11-18T17:30:41.733Z,62.58
2023-11-18T17:33:13.065Z,61.65
2023-11-18T17:35:44.331Z,60.79
2023-11-18T17:38:15.229Z,61.19
2023-11-18T17:40:53.174Z,61.09
2023-11-18T17:43:24.255Z,61.38
2023-11-18T17:45:57.711Z,61.27
2023-11-18T17:48:33.413Z,61.79
2023-11-18T17:51:03.768Z,62.26
2023-11-18T17:53:34.242Z,62.31
2023-11-18T17:56:11.556Z,61.92
2023-11-18T17:58:45.058Z,61.74
2023-11-18T18:01:19.791Z,61.86
2023-11-18T18:03:53.769Z,61.19
2023-11-18T18:06:27.080Z,61.33
2023-11-18T18:08:57.805Z,61.21
2023-11-18T18:11:33.833Z,61.43
2023-11-18T18:14:04.228Z,61.04
2023-11-18T18:16:35.618Z,61.13
2023-11-18T18:19:08.567Z,61.61
2023-11-18T18:21:39.031Z,61.45
2023-11-18T18:24:12.885Z,61.49
2023-11-18T18:26:53.699Z,61.51
2023-11-18T18:29:24.272Z,61.81
2023-11-18T18:31:54.848Z,62.01
2023-11-18T18:34:27.356Z,62.40
2023-11-18T18:37:00.947Z,62.39
2023-11-18T18:39:34.076Z,62.45
2023-11-18T18:42:14.217Z,62.52
2023-11-18T18:44:45.651Z,62.78
2023-11-18T18:47:18.897Z,63.18
2023-11-18T18:49:51.191Z,62.91
2023-11-18T18:52:22.627Z,63.23
2023-11-18T18:54:53.560Z,63.28
2023-11-18T18:57:26.635Z,63.23
2023-11-18T18:59:57.761Z,63.20
2023-11-18T19:02:28.848Z,63.49
2023-11-18T19:05:00.121Z,63.48
2023-11-18T19:07:33.524Z,64.00
2023-11-18T19:10:03.987Z,64.09
2023-11-18T19:12:37.152Z,64.43
2023-11-18T19:15:11.182Z,64.65
2023-11-18T19:17:43.328Z,64.89
2023-11-18T19:20:16.068Z,64.75
2023-11-18T19:22:47.589Z,65.41
2023-11-18T19:25:18.966Z,65.89
2023-11-18T19:27:52.568Z,66.16
2023-11-18T19:30:23.298Z,66.34
2023-11-18T19:32:54.005Z,66.41
2023-11-18T19:35:27.364Z,66.71
2023-11-18T19:37:57.757Z,67.02
2023-11-18T19:40:28.397Z,66.68
2023-11-18T19:43:02.488Z,67.05
2023-11-18T19:45:35.812Z,67.41
2023-11-18T19:48:07.390Z,67.38
2023-11-18T19:50:38.959Z,67.33
2023-11-18T19:53:14.725Z,67.57
2023-11-18T19:55:45.127Z,67.90
2023-11-18T19:58:20.355Z,68.10
2023-11-18T20:00:51.405Z,67.82
2023-11-18T20:03:27.134Z,67.55
2023-11-18T20:06:00.599Z,67.77
2023-11-18T20:08:30.910Z,67.99
2023-11-18T20:11:02.013Z,68.23
2023-11-18T20:13:36.925Z,67.81
2023-11-18T20:16:10.821Z,67.96
2023-11-18T20:18:44.320Z,68.09
2023-11-18T20:21:15.187Z,68.16
2023-11-18T20:23:45.529Z,67.82
2023-11-18T20:26:16.977Z,67.99
2023-11-18T20:28:52.689Z,68.22
2023-11-18T20:31:23.488Z,67.72
2023-11-18T20:33:54.113Z,67.86
2023-11-18T20:36:24.866Z,68.39
2023-11-18T20:38:58.124Z,68.45
2023-11-18T20:41:30.237Z,68.58
2023-11-18T20:44:04.324Z,68.59
2023-11-18T20:46:34.677Z,68.49
2023-11-18T20:49:06.728Z,68.72
2023-11-18T20:51:41.464Z,68.86
2023-11-18T20:54:12.520Z,68.95
2023-11-18T20:56:43.436Z,69.22
2023-11-18T20:59:19.814Z,69.28
2023-11-18T21:01:51.732Z,69.69
2023-11-18T21:04:22.723Z,69.55
2023-11-18T21:06:59.627Z,69.76
2023-11-18T21:09:30.046Z,69.70
2023-11-18T21:12:17.488Z,69.59
2023-11-18T21:14:57.327Z,69.40
2023-11-18T21:17:28.924Z,68.90
2023-11-18T21:20:01.744Z,68.98
2023-11-18T21:22:32.249Z,68.87
2023-11-18T21:25:06.496Z,68.70
2023-11-18T21:27:37.247Z,68.70
2023-11-18T21:30:12.517Z,68.63
2023-11-18T21:32:48.741Z,68.04
2023-11-18T21:35:24.157Z,67.80
2023-11-18T21:37:59.423Z,68.13
2023-11-18T21:40:32.053Z,67.76
2023-11-18T21:43:02.965Z,67.79
2023-11-18T21:45:39.336Z,67.61
2023-11-18T21:48:12.433Z,67.38
2023-11-18T21:50:43.729Z,67.56
2023-11-18T21:53:13.947Z,67.47
2023-11-18T21:55:45.257Z,67.69
2023-11-18T21:58:18.410Z,67.85
2023-11-18T22:00:52.879Z,67.93
2023-11-18T22:03:23.816Z,67.92
2023-11-18T22:05:55.175Z,67.76
2023-11-18T22:08:26.038Z,67.73
2023-11-18T22:10:56.547Z,68.18
2023-11-18T22:13:27.833Z,67.60
2023-11-18T22:16:02.017Z,68.16
2023-11-18T22:18:35.701Z,68.37
2023-11-18T22:21:08.075Z,68.16
2023-11-18T22:23:39.189Z,68.24
2023-11-18T22:26:10.406Z,68.39
2023-11-18T22:28:40.719Z,68.86
2023-11-18T22:31:17.385Z,68.66
2023-11-18T22:33:48.523Z,68.89
2023-11-18T22:36:19.225Z,69.11
2023-11-18T22:38:52.698Z,69.28
2023-11-18T22:41:23.743Z,69.00
2023-11-18T22:43:54.683Z,69.17
2023-11-18T22:46:28.388Z,69.31
2023-11-18T22:49:03.087Z,69.46
2023-11-18T22:51:35.000Z,69.38
2023-11-18T22:54:05.757Z,69.90
2023-11-18T22:56:37.475Z,69.60
2023-11-18T22:59:08.449Z,70.02
2023-11-18T23:01:44.687Z,70.09
2023-11-18T23:04:19.248Z,70.59
2023-11-18T23:06:56.563Z,70.36
2023-11-18T23:09:28.063Z,70.48
2023-11-18T23:11:58.614Z,70.25
2023-11-18T23:14:31.395Z,70.54
2023-11-18T23:17:08.399Z,70.38
2023-11-18T23:19:49.762Z,70.88
2023-11-18T23:22:21.217Z,70.87
2023-11-18T23:24:57.785Z,70.74
2023-11-18T23:27:29.402Z,71.22
2023-11-18T23:29:59.903Z,71.10
2023-11-18T23:32:33.812Z,71.15
2023-11-18T23:35:07.193Z,71.11
2023-11-18T23:37:37.974Z,70.99
2023-11-18T23:40:13.155Z,70.72
2023-11-18T23:42:44.325Z,71.15
2023-11-18T23:45:17.512Z,71.22
2023-11-18T23:47:52.461Z,71.45
2023-11-18T23:50:26.750Z,71.40
2023-11-18T23:52:57.088Z,71.43
2023-11-18T23:55:28.297Z,71.37
2023-11-18T23:58:01.026Z,71.15
